createdAt,value
2023-04-27T00:00:28.256Z,27.46
2023-04-27T00:01:28.249Z,27.47
2023-04-27T00:02:28.378Z,27.46
2023-04-27T00:03:28.389Z,27.45
2023-04-27T00:04:28.358Z,27.45
2023-04-27T00:05:28.349Z,27.43
2023-04-27T00:06:28.237Z,27.45
2023-04-27T00:07:28.236Z,27.43
2023-04-27T00:08:28.242Z,27.43
2023-04-27T00:09:28.223Z,27.43
2023-04-27T00:10:28.229Z,27.46
2023-04-27T00:11:28.230Z,27.45
2023-04-27T00:12:28.226Z,27.43
2023-04-27T00:13:28.216Z,27.45
2023-04-27T00:14:28.216Z,27.45
2023-04-27T00:15:28.214Z,27.46
2023-04-27T00:16:28.366Z,27.43
2023-04-27T00:17:28.239Z,27.45
2023-04-27T00:18:28.206Z,27.42
2023-04-27T00:19:28.204Z,27.43
2023-04-27T00:20:28.200Z,27.43
2023-04-27T00:21:28.189Z,27.43
2023-04-27T00:22:28.204Z,27.43
2023-04-27T00:23:28.185Z,27.42
2023-04-27T00:24:28.184Z,27.43
2023-04-27T00:25:28.204Z,27.43
2023-04-27T00:26:28.176Z,27.43
2023-04-27T00:27:28.170Z,27.42
2023-04-27T00:28:28.168Z,27.43
2023-04-27T00:29:28.165Z,27.43
2023-04-27T00:30:28.210Z,27.40
2023-04-27T00:31:28.188Z,27.43
2023-04-27T00:32:28.230Z,27.39
2023-04-27T00:33:28.193Z,27.40
2023-04-27T00:34:28.213Z,27.42
2023-04-27T00:35:28.198Z,27.38
2023-04-27T00:36:28.199Z,27.39
2023-04-27T00:37:28.206Z,27.39
2023-04-27T00:38:28.199Z,27.42
2023-04-27T00:39:28.206Z,27.39
2023-04-27T00:40:28.208Z,27.38
2023-04-27T00:41:28.195Z,27.40
2023-04-27T00:42:28.196Z,27.39
2023-04-27T00:43:28.189Z,27.40
2023-04-27T00:44:28.199Z,27.40
2023-04-27T00:45:28.215Z,27.39
2023-04-27T00:46:28.235Z,27.39
2023-04-27T00:47:28.247Z,27.39
2023-04-27T00:48:28.211Z,27.40
2023-04-27T00:49:28.195Z,27.40
2023-04-27T00:50:28.202Z,27.39
2023-04-27T00:51:28.210Z,27.42
2023-04-27T00:52:28.211Z,27.39
2023-04-27T00:53:28.187Z,27.39
2023-04-27T00:54:28.184Z,27.38
2023-04-27T00:55:28.194Z,27.39
2023-04-27T00:56:28.188Z,27.36
2023-04-27T00:57:28.176Z,27.39
2023-04-27T00:58:28.174Z,27.36
2023-04-27T00:59:28.163Z,27.39
2023-04-27T01:00:28.175Z,27.38
2023-04-27T01:01:28.249Z,27.36
2023-04-27T01:02:28.280Z,27.36
2023-04-27T01:03:28.276Z,27.36
2023-04-27T01:04:28.197Z,27.36
2023-04-27T01:05:28.155Z,27.35
2023-04-27T01:06:28.146Z,27.36
2023-04-27T01:07:28.153Z,27.36
2023-04-27T01:08:28.145Z,27.35
2023-04-27T01:09:28.144Z,27.33
2023-04-27T01:10:28.150Z,27.36
2023-04-27T01:11:28.132Z,27.33
2023-04-27T01:12:28.139Z,27.35
2023-04-27T01:13:28.133Z,27.35
2023-04-27T01:14:28.140Z,27.33
2023-04-27T01:15:28.136Z,27.33
2023-04-27T01:16:28.190Z,27.36
2023-04-27T01:17:28.163Z,27.35
2023-04-27T01:18:28.142Z,27.35
2023-04-27T01:19:28.160Z,27.35
2023-04-27T01:20:28.164Z,27.35
2023-04-27T01:21:28.153Z,27.32
2023-04-27T01:22:28.151Z,27.33
2023-04-27T01:23:28.149Z,27.32
2023-04-27T01:24:28.150Z,27.33
2023-04-27T01:25:28.158Z,27.33
2023-04-27T01:26:28.169Z,27.35
2023-04-27T01:27:28.149Z,27.32
2023-04-27T01:28:28.173Z,27.33
2023-04-27T01:29:28.153Z,27.33
2023-04-27T01:30:28.160Z,27.32
2023-04-27T01:31:28.233Z,27.32
2023-04-27T01:32:28.211Z,27.30
2023-04-27T01:33:28.172Z,27.33
2023-04-27T01:34:28.165Z,27.32
2023-04-27T01:35:28.529Z,27.30
2023-04-27T01:36:28.161Z,27.33
2023-04-27T01:37:28.166Z,27.32
2023-04-27T01:38:28.177Z,27.33
2023-04-27T01:39:28.179Z,27.32
2023-04-27T01:40:28.169Z,27.30
2023-04-27T01:41:28.151Z,27.33
2023-04-27T01:42:28.152Z,27.30
2023-04-27T01:43:28.144Z,27.30
2023-04-27T01:44:28.150Z,27.30
2023-04-27T01:45:28.148Z,27.32
2023-04-27T01:46:28.220Z,27.32
2023-04-27T01:47:28.197Z,27.32
2023-04-27T01:48:28.148Z,27.29
2023-04-27T01:49:28.129Z,27.30
2023-04-27T01:50:28.124Z,27.29
2023-04-27T01:51:28.121Z,27.30
2023-04-27T01:52:28.111Z,27.30
2023-04-27T01:53:28.095Z,27.30
2023-04-27T01:54:28.791Z,27.29
2023-04-27T01:55:28.089Z,27.30
2023-04-27T01:56:28.092Z,27.30
2023-04-27T01:57:28.073Z,27.30
2023-04-27T01:58:28.070Z,27.29
2023-04-27T01:59:28.087Z,27.29
2023-04-27T02:00:28.105Z,27.29
2023-04-27T02:01:28.139Z,27.28
2023-04-27T02:02:28.329Z,27.28
2023-04-27T02:03:28.217Z,27.29
2023-04-27T02:04:28.253Z,27.28
2023-04-27T02:05:28.153Z,27.30
2023-04-27T02:06:28.168Z,27.30
2023-04-27T02:07:28.182Z,27.29
2023-04-27T02:08:28.191Z,27.29
2023-04-27T02:09:28.205Z,27.28
2023-04-27T02:10:28.224Z,27.29
2023-04-27T02:11:28.205Z,27.28
2023-04-27T02:12:28.219Z,27.29
2023-04-27T02:13:28.221Z,27.29
2023-04-27T02:14:28.232Z,27.29
2023-04-27T02:15:28.248Z,27.28
2023-04-27T02:16:28.286Z,27.28
2023-04-27T02:17:28.266Z,27.25
2023-04-27T02:18:28.290Z,27.28
2023-04-27T02:19:28.289Z,27.26
2023-04-27T02:20:28.286Z,27.29
2023-04-27T02:21:28.281Z,27.28
2023-04-27T02:22:28.273Z,27.28
2023-04-27T02:23:28.275Z,27.25
2023-04-27T02:24:28.278Z,27.29
2023-04-27T02:25:28.288Z,27.28
2023-04-27T02:26:28.260Z,27.26
2023-04-27T02:27:28.272Z,27.26
2023-04-27T02:28:28.272Z,27.26
2023-04-27T02:29:28.283Z,27.28
2023-04-27T02:30:28.295Z,27.26
2023-04-27T02:31:28.311Z,27.29
2023-04-27T02:32:28.321Z,27.25
2023-04-27T02:33:28.279Z,27.28
2023-04-27T02:34:28.270Z,27.29
2023-04-27T02:35:28.277Z,27.26
2023-04-27T02:36:28.272Z,27.26
2023-04-27T02:37:28.254Z,27.28
2023-04-27T02:38:28.249Z,27.26
2023-04-27T02:39:28.232Z,27.28
2023-04-27T02:40:28.243Z,27.28
2023-04-27T02:41:28.241Z,27.29
2023-04-27T02:42:28.220Z,27.28
2023-04-27T02:43:28.222Z,27.26
2023-04-27T02:44:28.213Z,27.28
2023-04-27T02:45:28.217Z,27.26
2023-04-27T02:46:28.226Z,27.28
2023-04-27T02:47:28.221Z,27.28
2023-04-27T02:48:28.232Z,27.28
2023-04-27T02:49:28.222Z,27.26
2023-04-27T02:50:28.244Z,27.28
2023-04-27T02:51:28.224Z,27.28
2023-04-27T02:52:28.216Z,27.26
2023-04-27T02:53:28.220Z,27.26
2023-04-27T02:54:28.221Z,27.26
2023-04-27T02:55:28.220Z,27.25
2023-04-27T02:56:28.202Z,27.28
2023-04-27T02:57:28.199Z,27.25
2023-04-27T02:58:28.192Z,27.25
2023-04-27T02:59:28.192Z,27.19
2023-04-27T03:00:28.197Z,27.15
2023-04-27T03:01:28.243Z,27.15
2023-04-27T03:02:28.298Z,27.09
2023-04-27T03:03:28.272Z,27.08
2023-04-27T03:04:28.389Z,27.05
2023-04-27T03:05:28.181Z,26.97
2023-04-27T03:06:28.178Z,26.93
2023-04-27T03:07:28.205Z,26.85
2023-04-27T03:08:28.208Z,26.76
2023-04-27T03:09:28.259Z,26.66
2023-04-27T03:10:28.279Z,26.56
2023-04-27T03:11:28.289Z,26.50
2023-04-27T03:12:28.314Z,26.44
2023-04-27T03:13:28.326Z,26.42
2023-04-27T03:14:28.333Z,26.36
2023-04-27T03:15:28.369Z,26.32
2023-04-27T03:16:28.421Z,26.26
2023-04-27T03:17:28.464Z,26.19
2023-04-27T03:18:28.404Z,26.15
2023-04-27T03:19:28.428Z,26.12
2023-04-27T03:20:28.439Z,26.08
2023-04-27T03:21:28.446Z,26.06
2023-04-27T03:22:28.452Z,26.02
2023-04-27T03:23:28.476Z,26.01
2023-04-27T03:24:28.475Z,25.96
2023-04-27T03:25:28.484Z,25.95
2023-04-27T03:26:28.495Z,25.94
2023-04-27T03:27:28.519Z,25.92
2023-04-27T03:28:28.523Z,25.89
2023-04-27T03:29:28.531Z,25.85
2023-04-27T03:30:28.557Z,25.85
2023-04-27T03:31:28.657Z,25.81
2023-04-27T03:32:28.620Z,25.80
2023-04-27T03:33:28.589Z,25.77
2023-04-27T03:34:28.598Z,25.76
2023-04-27T03:35:28.632Z,25.76
2023-04-27T03:36:28.651Z,25.73
2023-04-27T03:37:28.641Z,25.71
2023-04-27T03:38:28.654Z,25.70
2023-04-27T03:39:28.679Z,25.67
2023-04-27T03:40:28.713Z,25.64
2023-04-27T03:41:28.752Z,25.66
2023-04-27T03:42:28.795Z,25.64
2023-04-27T03:43:28.851Z,25.63
2023-04-27T03:44:28.904Z,25.59
2023-04-27T03:45:28.956Z,25.56
2023-04-27T03:46:29.131Z,25.56
2023-04-27T03:47:29.049Z,25.53
2023-04-27T03:48:29.072Z,25.53
2023-04-27T03:49:29.121Z,25.50
2023-04-27T03:50:30.290Z,25.49
2023-04-27T03:51:29.213Z,25.49
2023-04-27T03:52:29.270Z,25.49
2023-04-27T03:53:29.320Z,25.46
2023-04-27T03:54:29.376Z,25.46
2023-04-27T03:55:29.399Z,25.43
2023-04-27T03:56:29.418Z,25.42
2023-04-27T03:57:29.456Z,25.39
2023-04-27T03:58:29.478Z,25.37
2023-04-27T03:59:29.499Z,25.36
2023-04-27T04:00:29.536Z,25.34
2023-04-27T04:01:29.563Z,25.34
2023-04-27T04:02:29.710Z,25.33
2023-04-27T04:03:29.854Z,25.32
2023-04-27T04:04:29.782Z,25.32
2023-04-27T04:05:29.679Z,25.28
2023-04-27T04:06:29.708Z,25.28
2023-04-27T04:07:29.725Z,25.28
2023-04-27T04:08:29.752Z,25.25
2023-04-27T04:09:29.800Z,25.25
2023-04-27T04:10:29.814Z,25.25
2023-04-27T04:11:29.860Z,25.23
2023-04-27T04:12:29.861Z,25.21
2023-04-27T04:13:29.884Z,25.21
2023-04-27T04:14:29.922Z,25.19
2023-04-27T04:15:30.104Z,25.18
2023-04-27T04:16:30.106Z,25.16
2023-04-27T04:17:30.140Z,25.18
2023-04-27T04:18:30.161Z,25.15
2023-04-27T04:19:30.240Z,25.16
2023-04-27T04:20:30.309Z,25.16
2023-04-27T04:21:30.382Z,25.15
2023-04-27T04:22:30.453Z,25.15
2023-04-27T04:23:30.532Z,25.11
2023-04-27T04:24:30.594Z,25.11
2023-04-27T04:25:30.667Z,25.11
2023-04-27T04:26:30.735Z,25.13
2023-04-27T04:27:30.835Z,25.12
2023-04-27T04:28:30.892Z,25.08
2023-04-27T04:29:30.955Z,25.09
2023-04-27T04:30:31.040Z,25.09
2023-04-27T04:31:31.196Z,25.09
2023-04-27T04:32:31.229Z,25.11
2023-04-27T04:33:31.218Z,25.12
2023-04-27T04:34:31.289Z,25.09
2023-04-27T04:35:31.364Z,25.08
2023-04-27T04:36:31.437Z,25.09
2023-04-27T04:37:31.514Z,25.05
2023-04-27T04:38:31.680Z,25.06
2023-04-27T04:39:31.674Z,25.05
2023-04-27T04:40:31.741Z,25.06
2023-04-27T04:41:31.820Z,25.05
2023-04-27T04:42:31.897Z,25.05
2023-04-27T04:43:31.975Z,25.05
2023-04-27T04:44:32.050Z,25.04
2023-04-27T04:45:32.134Z,25.04
2023-04-27T04:46:32.255Z,25.05
2023-04-27T04:47:32.370Z,25.02
2023-04-27T04:48:32.355Z,25.01
2023-04-27T04:49:32.429Z,25.01
2023-04-27T04:50:32.512Z,24.99
2023-04-27T04:51:32.608Z,24.98
2023-04-27T04:52:32.667Z,24.99
2023-04-27T04:53:32.752Z,24.99
2023-04-27T04:54:32.873Z,24.96
2023-04-27T04:55:32.901Z,24.96
2023-04-27T04:56:32.978Z,24.96
2023-04-27T04:57:33.065Z,24.98
2023-04-27T04:58:33.147Z,24.96
2023-04-27T04:59:33.212Z,24.96
2023-04-27T05:00:33.290Z,24.95
2023-04-27T05:01:33.430Z,24.94
2023-04-27T05:02:33.496Z,24.94
2023-04-27T05:03:33.663Z,24.94
2023-04-27T05:04:33.670Z,24.91
2023-04-27T05:05:33.707Z,24.91
2023-04-27T05:06:33.784Z,24.96
2023-04-27T05:07:33.853Z,24.99
2023-04-27T05:08:33.908Z,25.04
2023-04-27T05:09:33.983Z,25.12
2023-04-27T05:10:34.039Z,25.15
2023-04-27T05:11:34.093Z,25.19
2023-04-27T05:12:34.105Z,25.25
2023-04-27T05:13:34.167Z,25.32
2023-04-27T05:14:34.194Z,25.33
2023-04-27T05:15:34.243Z,25.39
2023-04-27T05:16:34.404Z,25.44
2023-04-27T05:17:34.301Z,25.50
2023-04-27T05:18:34.336Z,25.53
2023-04-27T05:19:34.363Z,25.57
2023-04-27T05:20:34.389Z,25.59
2023-04-27T05:21:34.404Z,25.64
2023-04-27T05:22:34.465Z,25.66
2023-04-27T05:23:34.474Z,25.70
2023-04-27T05:24:34.479Z,25.74
2023-04-27T05:25:34.501Z,25.76
2023-04-27T05:26:34.501Z,25.81
2023-04-27T05:27:34.527Z,25.83
2023-04-27T05:28:34.526Z,25.83
2023-04-27T05:29:34.581Z,25.87
2023-04-27T05:30:34.587Z,25.88
2023-04-27T05:31:34.652Z,25.89
2023-04-27T05:32:34.711Z,25.94
2023-04-27T05:33:34.713Z,25.94
2023-04-27T05:34:34.705Z,25.98
2023-04-27T05:35:34.794Z,26.02
2023-04-27T05:36:34.818Z,26.04
2023-04-27T05:37:34.757Z,26.09
2023-04-27T05:38:34.774Z,26.11
2023-04-27T05:39:34.776Z,26.12
2023-04-27T05:40:34.780Z,26.16
2023-04-27T05:41:34.956Z,26.21
2023-04-27T05:42:34.831Z,26.22
2023-04-27T05:43:34.865Z,26.23
2023-04-27T05:44:34.869Z,26.26
2023-04-27T05:45:35.036Z,26.26
2023-04-27T05:46:37.095Z,26.29
2023-04-27T05:47:35.003Z,26.32
2023-04-27T05:48:34.985Z,26.30
2023-04-27T05:49:35.000Z,26.33
2023-04-27T05:50:35.055Z,26.38
2023-04-27T05:51:35.006Z,26.38
2023-04-27T05:52:36.340Z,26.39
2023-04-27T05:53:35.135Z,26.39
2023-04-27T05:54:35.141Z,26.33
2023-04-27T05:55:35.150Z,26.23
2023-04-27T05:56:35.285Z,26.12
2023-04-27T05:57:35.169Z,25.98
2023-04-27T05:58:35.183Z,25.88
2023-04-27T05:59:35.199Z,25.76
2023-04-27T06:00:35.218Z,25.68
2023-04-27T06:01:35.233Z,25.59
2023-04-27T06:02:35.394Z,25.49
2023-04-27T06:03:35.364Z,25.42
2023-04-27T06:04:35.343Z,25.36
2023-04-27T06:05:35.501Z,25.30
2023-04-27T06:06:35.414Z,25.26
2023-04-27T06:07:35.390Z,25.21
2023-04-27T06:08:35.408Z,25.16
2023-04-27T06:09:35.445Z,25.15
2023-04-27T06:10:35.487Z,25.11
2023-04-27T06:11:35.512Z,25.09
2023-04-27T06:12:35.539Z,25.04
2023-04-27T06:13:35.627Z,24.92
2023-04-27T06:14:35.725Z,24.87
2023-04-27T06:15:35.851Z,24.79
2023-04-27T06:16:35.960Z,24.75
2023-04-27T06:17:36.073Z,24.70
2023-04-27T06:18:36.132Z,24.66
2023-04-27T06:19:36.238Z,24.61
2023-04-27T06:20:36.370Z,24.54
2023-04-27T06:21:36.426Z,24.49
2023-04-27T06:22:36.502Z,24.46
2023-04-27T06:23:36.561Z,24.44
2023-04-27T06:24:36.644Z,24.44
2023-04-27T06:25:36.667Z,24.40
2023-04-27T06:26:36.721Z,24.36
2023-04-27T06:27:36.780Z,24.32
2023-04-27T06:28:36.820Z,24.30
2023-04-27T06:29:36.859Z,24.30
2023-04-27T06:30:38.282Z,24.32
2023-04-27T06:31:37.124Z,24.29
2023-04-27T06:32:37.163Z,24.27
2023-04-27T06:33:37.196Z,24.29
2023-04-27T06:34:37.230Z,24.23
2023-04-27T06:35:37.304Z,24.22
2023-04-27T06:36:37.362Z,24.20
2023-04-27T06:37:37.413Z,24.20
2023-04-27T06:38:37.451Z,24.19
2023-04-27T06:39:37.512Z,24.20
2023-04-27T06:40:37.556Z,24.16
2023-04-27T06:41:37.630Z,24.17
2023-04-27T06:42:37.661Z,24.22
2023-04-27T06:43:37.696Z,24.32
2023-04-27T06:44:37.750Z,24.37
2023-04-27T06:45:37.800Z,24.47
2023-04-27T06:46:37.969Z,24.59
2023-04-27T06:47:37.856Z,24.70
2023-04-27T06:48:37.908Z,24.78
2023-04-27T06:49:37.943Z,24.89
2023-04-27T06:50:37.969Z,24.96
2023-04-27T06:51:37.982Z,25.09
2023-04-27T06:52:38.019Z,25.16
2023-04-27T06:53:38.037Z,25.23
2023-04-27T06:54:38.096Z,25.29
2023-04-27T06:55:38.111Z,25.37
2023-04-27T06:56:38.126Z,25.43
2023-04-27T06:57:38.145Z,25.46
2023-04-27T06:58:38.160Z,25.51
2023-04-27T06:59:38.182Z,25.57
2023-04-27T07:00:38.219Z,25.60
2023-04-27T07:01:38.283Z,25.66
2023-04-27T07:02:38.315Z,25.66
2023-04-27T07:03:38.515Z,25.71
2023-04-27T07:04:38.409Z,25.76
2023-04-27T07:05:38.341Z,25.81
2023-04-27T07:06:38.351Z,25.84
2023-04-27T07:07:38.386Z,25.89
2023-04-27T07:08:38.402Z,25.92
2023-04-27T07:09:38.422Z,25.99
2023-04-27T07:10:38.446Z,25.99
2023-04-27T07:11:38.468Z,26.08
2023-04-27T07:12:38.512Z,26.09
2023-04-27T07:13:38.493Z,26.12
2023-04-27T07:14:38.524Z,26.15
2023-04-27T07:15:38.614Z,26.16
2023-04-27T07:16:38.603Z,26.19
2023-04-27T07:17:38.609Z,26.19
2023-04-27T07:18:38.577Z,26.19
2023-04-27T07:19:38.626Z,26.25
2023-04-27T07:20:38.718Z,26.22
2023-04-27T07:21:38.788Z,26.21
2023-04-27T07:22:38.924Z,26.23
2023-04-27T07:23:38.941Z,26.26
2023-04-27T07:24:39.033Z,26.28
2023-04-27T07:25:39.127Z,26.29
2023-04-27T07:26:39.206Z,26.32
2023-04-27T07:27:39.308Z,26.33
2023-04-27T07:28:39.391Z,26.33
2023-04-27T07:29:39.380Z,26.36
2023-04-27T07:30:39.489Z,26.39
2023-04-27T07:31:39.448Z,26.39
2023-04-27T07:32:39.473Z,26.42
2023-04-27T07:33:39.435Z,26.44
2023-04-27T07:34:52.154Z,26.47
2023-04-27T07:35:40.465Z,26.50
2023-04-27T07:36:39.477Z,26.51
2023-04-27T07:37:39.478Z,26.56
2023-04-27T07:38:39.506Z,26.56
2023-04-27T07:39:39.501Z,26.61
2023-04-27T07:40:39.516Z,26.64
2023-04-27T07:41:39.592Z,26.67
2023-04-27T07:42:39.542Z,26.66
2023-04-27T07:43:39.549Z,26.68
2023-04-27T07:44:39.576Z,26.66
2023-04-27T07:45:39.615Z,26.67
2023-04-27T07:46:39.723Z,26.66
2023-04-27T07:47:39.750Z,26.61
2023-04-27T07:48:39.820Z,26.60
2023-04-27T07:49:39.881Z,26.58
2023-04-27T07:50:39.959Z,26.56
2023-04-27T07:51:40.049Z,26.56
2023-04-27T07:52:40.143Z,26.56
2023-04-27T07:53:40.206Z,26.53
2023-04-27T07:54:40.310Z,26.51
2023-04-27T07:55:40.364Z,26.51
2023-04-27T07:56:40.390Z,26.51
2023-04-27T07:57:40.394Z,26.53
2023-04-27T07:58:40.414Z,26.54
2023-04-27T07:59:40.428Z,26.56
2023-04-27T08:00:40.427Z,26.53
2023-04-27T08:01:40.492Z,26.54
2023-04-27T08:02:40.642Z,26.53
2023-04-27T08:03:40.700Z,26.53
2023-04-27T08:04:40.741Z,26.53
2023-04-27T08:05:40.794Z,26.51
2023-04-27T08:06:41.307Z,26.51
2023-04-27T08:07:44.515Z,26.50
2023-04-27T08:08:40.556Z,26.54
2023-04-27T08:09:40.566Z,26.53
2023-04-27T08:10:40.594Z,26.51
2023-04-27T08:11:40.614Z,26.51
2023-04-27T08:12:40.640Z,26.53
2023-04-27T08:13:40.647Z,26.49
2023-04-27T08:14:40.652Z,26.49
2023-04-27T08:15:40.656Z,26.50
2023-04-27T08:16:40.752Z,26.51
2023-04-27T08:17:40.764Z,26.47
2023-04-27T08:18:40.718Z,26.47
2023-04-27T08:19:40.741Z,26.47
2023-04-27T08:20:40.754Z,26.44
2023-04-27T08:21:40.762Z,26.40
2023-04-27T08:22:40.855Z,26.33
2023-04-27T08:23:40.873Z,26.26
2023-04-27T08:24:40.904Z,26.21
2023-04-27T08:25:40.924Z,26.13
2023-04-27T08:26:41.026Z,26.02
2023-04-27T08:27:40.971Z,25.96
2023-04-27T08:28:41.010Z,25.91
2023-04-27T08:29:41.050Z,25.87
2023-04-27T08:30:41.081Z,25.78
2023-04-27T08:31:41.160Z,25.76
2023-04-27T08:32:41.183Z,25.74
2023-04-27T08:33:41.176Z,25.73
2023-04-27T08:34:41.191Z,25.76
2023-04-27T08:35:41.225Z,25.77
2023-04-27T08:36:41.253Z,25.78
2023-04-27T08:37:41.269Z,25.83
2023-04-27T08:38:41.285Z,25.84
2023-04-27T08:39:41.301Z,25.85
2023-04-27T08:40:41.334Z,25.88
2023-04-27T08:41:41.352Z,25.92
2023-04-27T08:42:41.375Z,25.95
2023-04-27T08:43:41.398Z,25.98
2023-04-27T08:44:41.425Z,26.02
2023-04-27T08:45:41.447Z,26.04
2023-04-27T08:46:41.534Z,26.05
2023-04-27T08:47:43.800Z,26.05
2023-04-27T08:48:41.667Z,26.11
2023-04-27T08:49:41.739Z,26.11
2023-04-27T08:50:41.792Z,26.12
2023-04-27T08:51:41.807Z,26.13
2023-04-27T08:52:41.834Z,26.11
2023-04-27T08:53:41.851Z,26.11
2023-04-27T08:54:41.896Z,26.09
2023-04-27T08:55:41.900Z,26.08
2023-04-27T08:56:41.926Z,26.08
2023-04-27T08:57:41.935Z,26.08
2023-04-27T08:58:41.966Z,26.05
2023-04-27T08:59:41.983Z,26.04
2023-04-27T09:00:42.015Z,26.05
2023-04-27T09:01:42.105Z,26.08
2023-04-27T09:02:42.114Z,26.12
2023-04-27T09:03:42.254Z,26.16
2023-04-27T09:04:42.294Z,26.19
2023-04-27T09:05:49.434Z,26.22
2023-04-27T09:06:42.157Z,26.26
2023-04-27T09:07:42.123Z,26.29
2023-04-27T09:08:42.140Z,26.29
2023-04-27T09:09:42.148Z,26.33
2023-04-27T09:10:42.183Z,26.38
2023-04-27T09:11:42.178Z,26.39
2023-04-27T09:12:42.192Z,26.40
2023-04-27T09:13:42.195Z,26.43
2023-04-27T09:14:42.208Z,26.43
2023-04-27T09:15:42.226Z,26.46
2023-04-27T09:16:42.376Z,26.50
2023-04-27T09:17:42.254Z,26.50
2023-04-27T09:18:42.421Z,26.50
2023-04-27T09:19:42.270Z,26.53
2023-04-27T09:20:42.313Z,26.54
2023-04-27T09:21:42.298Z,26.56
2023-04-27T09:22:42.348Z,26.56
2023-04-27T09:23:42.412Z,26.58
2023-04-27T09:24:42.526Z,26.60
2023-04-27T09:25:42.586Z,26.61
2023-04-27T09:26:42.680Z,26.60
2023-04-27T09:27:42.694Z,26.60
2023-04-27T09:28:42.762Z,26.60
2023-04-27T09:29:42.832Z,26.58
2023-04-27T09:30:42.903Z,26.60
2023-04-27T09:31:43.063Z,26.58
2023-04-27T09:32:43.068Z,26.63
2023-04-27T09:33:43.114Z,26.64
2023-04-27T09:34:43.158Z,26.64
2023-04-27T09:35:43.152Z,26.66
2023-04-27T09:36:43.173Z,26.68
2023-04-27T09:37:43.193Z,26.66
2023-04-27T09:38:43.188Z,26.68
2023-04-27T09:39:43.227Z,26.71
2023-04-27T09:40:43.312Z,26.73
2023-04-27T09:41:43.263Z,26.76
2023-04-27T09:42:43.270Z,26.78
2023-04-27T09:43:43.301Z,26.78
2023-04-27T09:44:43.313Z,26.76
2023-04-27T09:45:43.388Z,26.77
2023-04-27T09:46:43.346Z,26.83
2023-04-27T09:47:43.394Z,26.84
2023-04-27T09:48:43.377Z,26.84
2023-04-27T09:49:43.420Z,26.83
2023-04-27T09:50:43.398Z,26.88
2023-04-27T09:51:43.435Z,26.91
2023-04-27T09:52:43.431Z,26.91
2023-04-27T09:53:43.466Z,26.95
2023-04-27T09:54:43.473Z,26.95
2023-04-27T09:55:43.484Z,26.93
2023-04-27T09:56:43.488Z,26.88
2023-04-27T09:57:43.495Z,26.88
2023-04-27T09:58:43.529Z,26.88
2023-04-27T09:59:43.537Z,26.90
2023-04-27T10:00:43.546Z,26.91
2023-04-27T10:01:43.664Z,26.90
2023-04-27T10:02:53.014Z,26.90
2023-04-27T10:03:44.685Z,26.93
2023-04-27T10:04:43.684Z,26.93
2023-04-27T10:05:43.595Z,26.94
2023-04-27T10:06:43.611Z,26.94
2023-04-27T10:07:43.615Z,26.97
2023-04-27T10:08:43.612Z,26.97
2023-04-27T10:09:43.617Z,26.97
2023-04-27T10:10:43.629Z,26.98
2023-04-27T10:11:43.625Z,26.99
2023-04-27T10:12:43.628Z,27.04
2023-04-27T10:13:43.633Z,27.04
2023-04-27T10:14:43.643Z,27.05
2023-04-27T10:15:43.659Z,27.08
2023-04-27T10:16:43.719Z,27.11
2023-04-27T10:17:43.669Z,27.09
2023-04-27T10:18:43.672Z,27.11
2023-04-27T10:19:43.668Z,27.13
2023-04-27T10:20:43.674Z,27.12
2023-04-27T10:21:43.686Z,27.15
2023-04-27T10:22:43.678Z,27.18
2023-04-27T10:23:43.685Z,27.18
2023-04-27T10:24:43.781Z,27.21
2023-04-27T10:25:43.690Z,27.22
2023-04-27T10:26:43.692Z,27.22
2023-04-27T10:27:43.678Z,27.24
2023-04-27T10:28:43.685Z,27.22
2023-04-27T10:29:43.734Z,27.25
2023-04-27T10:30:43.881Z,27.24
2023-04-27T10:31:43.731Z,27.29
2023-04-27T10:32:43.763Z,27.28
2023-04-27T10:33:43.724Z,27.28
2023-04-27T10:34:43.730Z,27.30
2023-04-27T10:35:43.733Z,27.30
2023-04-27T10:36:43.747Z,27.33
2023-04-27T10:37:43.754Z,27.33
2023-04-27T10:38:43.770Z,27.30
2023-04-27T10:39:47.624Z,27.32
2023-04-27T10:40:44.842Z,27.32
2023-04-27T10:41:43.788Z,27.32
2023-04-27T10:42:43.796Z,27.32
2023-04-27T10:43:43.796Z,27.33
2023-04-27T10:44:43.823Z,27.32
2023-04-27T10:45:43.837Z,27.30
2023-04-27T10:46:43.863Z,27.30
2023-04-27T10:47:43.911Z,27.33
2023-04-27T10:48:43.881Z,27.32
2023-04-27T10:49:43.843Z,27.32
2023-04-27T10:50:43.857Z,27.32
2023-04-27T10:51:43.872Z,27.36
2023-04-27T10:52:43.888Z,27.33
2023-04-27T10:53:43.897Z,27.33
2023-04-27T10:54:43.906Z,27.35
2023-04-27T10:55:43.912Z,27.32
2023-04-27T10:56:43.917Z,27.35
2023-04-27T10:57:43.917Z,27.33
2023-04-27T10:58:49.413Z,27.35
2023-04-27T10:59:44.940Z,27.36
2023-04-27T11:00:43.979Z,27.38
2023-04-27T11:01:43.941Z,27.38
2023-04-27T11:02:43.983Z,27.39
2023-04-27T11:03:44.022Z,27.38
2023-04-27T11:04:43.967Z,27.38
2023-04-27T11:05:43.946Z,27.38
2023-04-27T11:06:43.971Z,27.38
2023-04-27T11:07:43.965Z,27.38
2023-04-27T11:08:43.977Z,27.36
2023-04-27T11:09:43.974Z,27.39
2023-04-27T11:10:44.006Z,27.38
2023-04-27T11:11:44.019Z,27.38
2023-04-27T11:12:44.014Z,27.38
2023-04-27T11:13:43.997Z,27.42
2023-04-27T11:14:44.000Z,27.40
2023-04-27T11:15:44.029Z,27.39
2023-04-27T11:16:44.028Z,27.40
2023-04-27T11:17:44.065Z,27.38
2023-04-27T11:18:44.033Z,27.39
2023-04-27T11:19:44.230Z,27.38
2023-04-27T11:20:44.029Z,27.38
2023-04-27T11:21:44.045Z,27.42
2023-04-27T11:22:44.057Z,27.39
2023-04-27T11:23:44.055Z,27.39
2023-04-27T11:24:44.063Z,27.43
2023-04-27T11:25:44.067Z,27.40
2023-04-27T11:26:44.109Z,27.42
2023-04-27T11:27:44.090Z,27.42
2023-04-27T11:28:44.107Z,27.40
2023-04-27T11:29:44.110Z,27.46
2023-04-27T11:30:44.115Z,27.47
2023-04-27T11:31:44.157Z,27.50
2023-04-27T11:32:44.142Z,27.47
2023-04-27T11:33:44.148Z,27.49
2023-04-27T11:34:44.150Z,27.47
2023-04-27T11:35:44.163Z,27.47
2023-04-27T11:36:44.147Z,27.47
2023-04-27T11:37:44.279Z,27.45
2023-04-27T11:38:44.208Z,27.45
2023-04-27T11:39:44.191Z,27.43
2023-04-27T11:40:44.185Z,27.43
2023-04-27T11:41:44.209Z,27.39
2023-04-27T11:42:44.203Z,27.36
2023-04-27T11:43:44.227Z,27.40
2023-04-27T11:44:44.219Z,27.36
2023-04-27T11:45:44.226Z,27.35
2023-04-27T11:46:44.313Z,27.35
2023-04-27T11:47:44.271Z,27.35
2023-04-27T11:48:44.310Z,27.30
2023-04-27T11:49:44.344Z,27.30
2023-04-27T11:50:44.368Z,27.28
2023-04-27T11:51:44.428Z,27.26
2023-04-27T11:52:44.451Z,27.29
2023-04-27T11:53:44.479Z,27.29
2023-04-27T11:54:44.526Z,27.32
2023-04-27T11:55:44.556Z,27.33
2023-04-27T11:56:44.589Z,27.38
2023-04-27T11:57:44.633Z,27.40
2023-04-27T11:58:46.457Z,27.40
2023-04-27T11:59:44.689Z,27.42
2023-04-27T12:00:44.704Z,27.43
2023-04-27T12:01:44.773Z,27.45
2023-04-27T12:02:44.988Z,27.47
2023-04-27T12:03:44.865Z,27.49
2023-04-27T12:04:44.961Z,27.50
2023-04-27T12:05:44.855Z,27.53
2023-04-27T12:06:44.837Z,27.54
2023-04-27T12:07:44.855Z,27.56
2023-04-27T12:08:44.877Z,27.54
2023-04-27T12:09:44.888Z,27.54
2023-04-27T12:10:44.921Z,27.53
2023-04-27T12:11:44.957Z,27.53
2023-04-27T12:12:44.960Z,27.53
2023-04-27T12:13:44.995Z,27.56
2023-04-27T12:14:45.013Z,27.54
2023-04-27T12:15:45.028Z,27.54
2023-04-27T12:16:45.085Z,27.56
2023-04-27T12:17:45.103Z,27.57
2023-04-27T12:18:45.070Z,27.57
2023-04-27T12:19:45.078Z,27.58
2023-04-27T12:20:45.085Z,27.61
2023-04-27T12:21:45.089Z,27.61
2023-04-27T12:22:45.100Z,27.64
2023-04-27T12:23:45.100Z,27.67
2023-04-27T12:24:45.091Z,27.66
2023-04-27T12:25:45.107Z,27.67
2023-04-27T12:26:45.110Z,27.71
2023-04-27T12:27:45.122Z,27.68
2023-04-27T12:28:45.144Z,27.73
2023-04-27T12:29:45.130Z,27.70
2023-04-27T12:30:45.171Z,27.71
2023-04-27T12:31:45.200Z,27.73
2023-04-27T12:32:45.181Z,27.73
2023-04-27T12:33:45.152Z,27.73
2023-04-27T12:34:45.138Z,27.79
2023-04-27T12:35:45.145Z,27.80
2023-04-27T12:36:45.144Z,27.81
2023-04-27T12:37:45.148Z,27.84
2023-04-27T12:38:45.166Z,27.84
2023-04-27T12:39:45.141Z,27.87
2023-04-27T12:40:45.148Z,27.90
2023-04-27T12:41:45.154Z,27.91
2023-04-27T12:42:45.155Z,27.92
2023-04-27T12:43:45.147Z,27.97
2023-04-27T12:44:45.147Z,27.98
2023-04-27T12:45:45.121Z,28.00
2023-04-27T12:46:45.324Z,28.04
2023-04-27T12:48:01.090Z,28.05
2023-04-27T12:48:46.188Z,28.08
2023-04-27T12:49:45.127Z,28.09
2023-04-27T12:50:45.125Z,28.11
2023-04-27T12:51:45.128Z,28.15
2023-04-27T12:52:45.128Z,28.12